Time;durP1;ratioP1;P1;durP2;ratioP2;P2;SDS_P1;SDS_P2;PMS_P1;PMS_P2;Temp;Humidity;BMP_temperature;BMP_pressure;BME280_temperature;BME280_humidity;BME280_pressure;Samples;Min_cycle;Max_cycle;Signal;HPM_P1;HPM_P2
2023/05/31 00:01:53;;;;;;;13.90;6.05;;;;;;;12.95;74.82;102815.00;7391811;19;20086;-46
2023/05/31 00:04:20;;;;;;;12.60;6.10;;;;;;;12.94;75.00;102814.13;7388693;19;20054;-45
2023/05/31 00:06:47;;;;;;;14.15;5.97;;;;;;;12.96;74.56;102816.72;7388805;19;20014;-46
2023/05/31 00:09:14;;;;;;;15.43;5.82;;;;;;;12.91;74.59;102814.28;7390021;19;20019;-46
2023/05/31 00:11:42;;;;;;;12.88;6.70;;;;;;;12.95;74.48;102812.34;7391709;19;20015;-46
2023/05/31 00:14:10;;;;;;;14.00;6.20;;;;;;;12.88;74.60;102815.28;7391056;19;20018;-46
2023/05/31 00:16:37;;;;;;;12.45;5.93;;;;;;;12.83;74.92;102808.50;7391313;19;20039;-45
2023/05/31 00:19:24;;;;;;;12.93;6.30;;;;;;;12.76;75.08;102810.59;7389732;19;20023;-46
2023/05/31 00:21:51;;;;;;;14.82;6.50;;;;;;;12.80;75.18;102808.66;7391411;19;20026;-46
2023/05/31 00:24:18;;;;;;;15.15;6.45;;;;;;;12.81;75.13;102811.22;7390136;19;20556;-45
2023/05/31 00:26:46;;;;;;;11.82;6.05;;;;;;;12.79;74.62;102807.78;7390766;19;20068;-45
2023/05/31 00:29:13;;;;;;;10.95;5.60;;;;;;;12.81;74.92;102807.69;7391193;19;20039;-46
2023/05/31 00:31:41;;;;;;;10.45;5.72;;;;;;;12.82;74.95;102796.13;7391335;19;20032;-45
2023/05/31 00:34:10;;;;;;;13.52;6.68;;;;;;;12.81;74.88;102797.06;7389205;19;20027;-46
2023/05/31 00:36:37;;;;;;;13.38;6.22;;;;;;;12.75;75.05;102797.41;7390903;19;20014;-43
2023/05/31 00:39:04;;;;;;;12.75;6.68;;;;;;;12.77;74.89;102798.16;7389175;19;20039;-45
2023/05/31 00:41:31;;;;;;;14.32;6.32;;;;;;;12.71;74.91;102786.06;7391298;19;20356;-44
2023/05/31 00:43:58;;;;;;;14.15;6.20;;;;;;;12.71;74.96;102790.50;7389857;19;20014;-47
2023/05/31 00:46:27;;;;;;;11.48;6.05;;;;;;;12.72;74.82;102792.22;7390782;19;20046;-46
2023/05/31 00:48:55;;;;;;;13.88;6.65;;;;;;;12.67;75.17;102798.63;7386198;19;20039;-46
2023/05/31 00:51:25;;;;;;;13.63;5.85;;;;;;;12.68;74.94;102796.84;7386656;19;20044;-45
2023/05/31 00:53:52;;;;;;;11.02;5.85;;;;;;;12.62;75.19;102797.13;7390229;19;20369;-48
2023/05/31 00:56:21;;;;;;;13.93;6.43;;;;;;;12.59;75.46;102810.56;7390601;19;20022;-48
2023/05/31 00:58:50;;;;;;;13.00;6.28;;;;;;;12.58;75.27;102806.19;7389798;19;20018;-47
2023/05/31 01:01:17;;;;;;;12.68;5.97;;;;;;;12.55;75.15;102803.66;7390362;19;20022;-46
2023/05/31 01:03:45;;;;;;;13.43;6.47;;;;;;;12.55;75.40;102811.66;7390821;19;20708;-48
2023/05/31 01:06:12;;;;;;;13.88;6.57;;;;;;;12.53;75.33;102808.22;7388042;19;20074;-49
2023/05/31 01:08:40;;;;;;;14.77;6.60;;;;;;;12.51;75.58;102804.75;7388413;19;20019;-48
2023/05/31 01:11:21;;;;;;;14.10;6.55;;;;;;;12.56;75.31;102805.41;7390363;19;20043;-46
2023/05/31 01:13:57;;;;;;;12.48;6.75;;;;;;;12.35;75.83;102796.69;7390338;19;20084;-47
2023/05/31 01:16:32;;;;;;;13.95;6.32;;;;;;;12.12;76.52;102803.94;7389730;19;20014;-48
2023/05/31 01:19:05;;;;;;;12.32;5.82;;;;;;;11.92;77.49;102799.56;7389680;19;20025;-48
2023/05/31 01:22:01;;;;;;;12.38;5.97;;;;;;;11.90;77.53;102796.13;7389965;19;20078;-48
2023/05/31 01:24:44;;;;;;;16.52;6.22;;;;;;;11.89;77.47;102799.72;7388549;19;20022;-48
2023/05/31 01:27:15;;;;;;;12.65;6.25;;;;;;;11.94;77.20;102803.03;7389612;19;20425;-47
2023/05/31 01:29:44;;;;;;;15.27;6.85;;;;;;;12.17;76.05;102809.94;7389595;19;20019;-45
2023/05/31 01:32:14;;;;;;;14.30;6.90;;;;;;;12.17;75.42;102804.63;7389732;19;20050;-45
2023/05/31 01:34:45;;;;;;;11.98;6.80;;;;;;;11.94;76.36;102796.84;7388191;19;20018;-45
2023/05/31 01:37:12;;;;;;;13.27;7.10;;;;;;;11.78;77.13;102791.34;7389481;19;20107;-46
2023/05/31 01:39:39;;;;;;;12.38;6.28;;;;;;;11.67;77.38;102797.13;7388893;19;20385;-49
2023/05/31 01:42:09;;;;;;;13.80;6.90;;;;;;;11.68;77.51;102801.53;7389057;19;20011;-52
2023/05/31 01:44:40;;;;;;;13.52;7.00;;;;;;;11.65;77.69;102800.81;7387534;19;20023;-47
2023/05/31 01:47:09;;;;;;;13.35;6.93;;;;;;;11.65;77.74;102803.47;7389277;19;20090;-46
2023/05/31 01:49:37;;;;;;;13.50;7.70;;;;;;;11.54;77.92;102803.94;7388220;19;20491;-46
2023/05/31 01:52:12;;;;;;;13.20;7.22;;;;;;;11.66;77.62;102810.50;7394057;19;20374;-46
2023/05/31 01:54:39;;;;;;;14.85;6.97;;;;;;;11.62;77.53;102807.13;7393147;19;20033;-47
2023/05/31 01:57:07;;;;;;;14.88;7.75;;;;;;;11.89;76.13;102799.72;7396817;19;20051;-46
2023/05/31 01:59:35;;;;;;;14.32;7.20;;;;;;;11.87;76.10;102792.78;7395686;19;20113;-46
2023/05/31 02:02:03;;;;;;;13.43;6.55;;;;;;;11.69;76.63;102797.09;7395421;19;20078;-45
2023/05/31 02:04:31;;;;;;;15.23;7.18;;;;;;;11.52;77.21;102796.97;7394714;19;20024;-45
2023/05/31 02:07:00;;;;;;;11.80;6.85;;;;;;;11.35;78.46;102803.91;7395042;19;20043;-46
2023/05/31 02:09:27;;;;;;;13.70;7.00;;;;;;;11.63;77.53;102800.88;7395264;19;20018;-48
2023/05/31 02:11:54;;;;;;;12.95;6.85;;;;;;;11.87;76.30;102796.28;7395713;19;20039;-45
2023/05/31 02:14:21;;;;;;;13.40;7.20;;;;;;;11.70;76.82;102802.31;7394847;19;20040;-45
2023/05/31 02:16:48;;;;;;;13.52;7.45;;;;;;;11.50;77.60;102804.16;7395153;19;20007;-46
2023/05/31 02:19:15;;;;;;;13.25;7.13;;;;;;;11.40;78.23;102799.25;7395270;19;20043;-47
2023/05/31 02:21:43;;;;;;;15.90;7.38;;;;;;;11.37;78.48;102806.47;7395401;19;20014;-45
2023/05/31 02:24:10;;;;;;;15.73;6.57;;;;;;;11.44;78.34;102808.78;7394913;19;20039;-45
2023/05/31 02:26:37;;;;;;;14.93;7.32;;;;;;;11.41;78.19;102801.00;7395481;19;20031;-44
2023/05/31 02:29:04;;;;;;;13.43;7.07;;;;;;;11.57;78.06;102805.63;7392529;19;20015;-46
2023/05/31 02:31:31;;;;;;;15.38;7.10;;;;;;;11.83;76.53;102804.41;7395358;19;20113;-44
2023/05/31 02:33:59;;;;;;;15.68;7.93;;;;;;;11.84;76.00;102806.19;7395322;19;20018;-45
2023/05/31 02:36:28;;;;;;;15.38;7.80;;;;;;;11.70;76.46;102812.06;7394846;19;20023;-45
2023/05/31 02:38:55;;;;;;;14.68;7.72;;;;;;;11.53;77.24;102812.00;7395381;19;20010;-44
2023/05/31 02:41:23;;;;;;;15.93;8.60;;;;;;;11.41;77.68;102813.41;7394637;19;20015;-44
2023/05/31 02:43:50;;;;;;;17.60;8.13;;;;;;;11.33;77.60;102813.72;7394619;19;20019;-45
2023/05/31 02:46:17;;;;;;;14.10;7.70;;;;;;;11.20;77.76;102815.19;7391328;19;20384;-44
2023/05/31 02:48:44;;;;;;;14.05;7.80;;;;;;;11.13;78.01;102816.38;7392601;19;20021;-45
2023/05/31 02:51:11;;;;;;;18.00;9.00;;;;;;;11.27;77.52;102814.00;7394230;19;20018;-46
2023/05/31 02:53:38;;;;;;;16.05;8.60;;;;;;;11.50;76.08;102810.31;7394861;19;20370;-47
2023/05/31 02:56:05;;;;;;;15.32;7.65;;;;;;;11.60;75.44;102809.00;7391963;19;20048;-49
2023/05/31 02:58:32;;;;;;;16.13;8.80;;;;;;;11.62;75.34;102796.50;7392640;19;20014;-49
2023/05/31 03:01:00;;;;;;;19.23;8.40;;;;;;;11.65;75.16;102803.47;7393866;19;20018;-47
2023/05/31 03:03:28;;;;;;;20.55;8.80;;;;;;;11.65;74.82;102804.31;7391560;19;20018;-48
2023/05/31 03:05:55;;;;;;;18.60;8.55;;;;;;;11.67;74.61;102802.44;7391969;19;20035;-49
2023/05/31 03:08:22;;;;;;;19.50;9.80;;;;;;;11.32;75.42;102806.69;7392329;19;20089;-45
2023/05/31 03:10:49;;;;;;;19.08;9.55;;;;;;;11.10;76.20;102804.09;7393716;19;20019;-45
2023/05/31 03:13:16;;;;;;;19.77;9.93;;;;;;;10.90;77.21;102801.44;7393534;19;20019;-48
2023/05/31 03:15:44;;;;;;;23.20;10.77;;;;;;;10.79;77.97;102801.88;7389927;19;20038;-45
2023/05/31 03:18:11;;;;;;;27.55;11.70;;;;;;;10.78;78.06;102792.22;7394066;19;20030;-45
2023/05/31 03:20:39;;;;;;;16.33;9.55;;;;;;;11.12;76.79;102804.03;7391067;19;20491;-45
2023/05/31 03:23:07;;;;;;;14.27;8.00;;;;;;;11.30;75.97;102802.41;7393492;19;20018;-47
2023/05/31 03:25:34;;;;;;;17.98;8.50;;;;;;;11.13;76.38;102801.31;7391666;19;20028;-50
2023/05/31 03:28:03;;;;;;;12.20;7.18;;;;;;;10.96;77.48;102801.19;7392712;19;20043;-48
2023/05/31 03:30:30;;;;;;;15.55;6.97;;;;;;;10.96;77.45;102798.53;7392934;19;20022;-49
2023/05/31 03:32:57;;;;;;;14.05;7.63;;;;;;;10.93;77.66;102807.47;7392977;19;20498;-48
2023/05/31 03:35:24;;;;;;;11.93;6.72;;;;;;;10.91;77.96;102806.69;7391971;19;20023;-49
2023/05/31 03:37:53;;;;;;;14.48;6.00;;;;;;;10.73;78.75;102810.97;7392619;19;20015;-49
2023/05/31 03:40:20;;;;;;;9.10;5.50;;;;;;;11.12;77.75;102801.41;7392813;19;20099;-50
2023/05/31 03:42:47;;;;;;;11.30;5.63;;;;;;;11.37;76.47;102799.41;7392664;19;20019;-51
2023/05/31 03:45:15;;;;;;;9.73;5.30;;;;;;;11.38;76.44;102801.13;7391460;19;20023;-49
2023/05/31 03:47:42;;;;;;;10.95;5.43;;;;;;;11.43;76.44;102796.47;7393064;19;20018;-51
2023/05/31 03:50:10;;;;;;;10.05;4.85;;;;;;;11.53;76.10;102804.03;7392491;19;20025;-52
2023/05/31 03:52:38;;;;;;;8.60;4.50;;;;;;;11.53;75.96;102799.56;7392161;19;20026;-49
2023/05/31 03:55:05;;;;;;;8.20;4.75;;;;;;;11.56;76.13;102788.84;7391126;19;20014;-49
2023/05/31 03:57:32;;;;;;;9.75;5.03;;;;;;;11.64;75.56;102799.09;7392553;19;20022;-49
2023/05/31 04:00:00;;;;;;;8.32;4.35;;;;;;;11.61;75.69;102804.53;7392539;19;20040;-50
2023/05/31 04:02:27;;;;;;;9.52;4.65;;;;;;;11.65;75.38;102795.50;7392516;19;20018;-51
2023/05/31 04:04:55;;;;;;;6.95;3.80;;;;;;;11.59;75.56;102798.44;7391349;19;20022;-50
2023/05/31 04:07:22;;;;;;;6.82;3.63;;;;;;;11.58;75.54;102802.88;7392024;19;20086;-49
2023/05/31 04:09:49;;;;;;;7.07;3.90;;;;;;;11.59;75.63;102803.72;7390276;19;20022;-50
2023/05/31 04:12:17;;;;;;;8.15;3.58;;;;;;;11.63;75.28;102800.00;7391611;19;20032;-50
2023/05/31 04:14:44;;;;;;;7.03;3.97;;;;;;;11.71;75.01;102793.44;7390339;19;20015;-49
2023/05/31 04:17:11;;;;;;;7.88;4.10;;;;;;;11.70;75.04;102791.69;7391364;19;20021;-48
2023/05/31 04:19:38;;;;;;;7.82;4.22;;;;;;;11.66;75.09;102798.09;7391726;19;20022;-53
2023/05/31 04:22:06;;;;;;;9.07;4.63;;;;;;;11.65;75.39;102803.47;7390500;19;20043;-50
2023/05/31 04:24:33;;;;;;;7.75;3.90;;;;;;;11.66;75.36;102805.19;7390972;19;20125;-50
2023/05/31 04:27:02;;;;;;;8.10;4.20;;;;;;;11.70;75.41;102798.81;7391212;19;20014;-50
2023/05/31 04:29:30;;;;;;;9.10;4.40;;;;;;;11.78;75.37;102799.31;7388224;19;20022;-54
2023/05/31 04:31:57;;;;;;;8.18;4.30;;;;;;;11.85;75.11;102799.94;7391907;19;20028;-48
2023/05/31 04:34:26;;;;;;;9.40;4.43;;;;;;;11.81;75.20;102804.47;7390673;19;20015;-50
2023/05/31 04:36:53;;;;;;;6.95;3.78;;;;;;;11.76;75.64;102801.19;7389681;19;20023;-49
2023/05/31 04:39:22;;;;;;;8.20;4.25;;;;;;;11.75;75.67;102807.41;7390684;19;20014;-54
2023/05/31 04:41:49;;;;;;;7.85;4.18;;;;;;;11.79;75.70;102809.03;7389110;19;20043;-52
2023/05/31 04:44:18;;;;;;;7.78;3.95;;;;;;;11.77;76.12;102808.22;7390181;19;20074;-53
2023/05/31 04:46:46;;;;;;;8.27;4.32;;;;;;;11.77;76.04;102808.22;7389381;19;20018;-52
2023/05/31 04:49:13;;;;;;;7.60;4.50;;;;;;;11.73;76.06;102805.78;7389613;19;20015;-51
2023/05/31 04:51:40;;;;;;;9.13;4.15;;;;;;;11.46;77.33;102798.97;7390403;19;20011;-52
2023/05/31 04:54:08;;;;;;;9.20;4.88;;;;;;;11.42;78.24;102804.50;7390630;19;20035;-53
2023/05/31 04:56:35;;;;;;;10.02;5.00;;;;;;;11.41;78.24;102801.00;7389920;19;20018;-54
2023/05/31 04:59:02;;;;;;;9.85;4.72;;;;;;;11.63;77.96;102810.63;7390260;19;20043;-53
2023/05/31 05:01:29;;;;;;;7.63;4.03;;;;;;;11.90;77.17;102798.78;7390248;19;20086;-51
2023/05/31 05:03:56;;;;;;;8.70;4.15;;;;;;;12.10;76.61;102799.66;7390256;19;20018;-51
2023/05/31 05:06:24;;;;;;;7.07;4.30;;;;;;;12.17;76.61;102809.03;7389990;19;20021;-52
2023/05/31 05:08:51;;;;;;;7.45;4.32;;;;;;;12.19;76.76;102799.22;7388835;19;20089;-48
2023/05/31 05:11:18;;;;;;;9.40;4.55;;;;;;;12.20;76.70;102796.47;7388981;19;20030;-51
2023/05/31 05:13:46;;;;;;;7.95;4.15;;;;;;;12.27;77.12;102801.50;7390140;19;20014;-51
2023/05/31 05:16:13;;;;;;;9.63;4.72;;;;;;;12.36;77.14;102801.03;7386570;19;20395;-52
2023/05/31 05:18:41;;;;;;;8.77;4.28;;;;;;;12.41;76.97;102804.38;7390048;19;20041;-50
2023/05/31 05:21:08;;;;;;;8.80;4.47;;;;;;;12.46;76.98;102817.41;7390488;19;20350;-48
2023/05/31 05:23:37;;;;;;;9.32;4.95;;;;;;;12.51;77.06;102805.63;7389654;19;20022;-53
2023/05/31 05:26:05;;;;;;;10.60;4.80;;;;;;;12.53;77.26;102810.88;7389151;19;20025;-52
2023/05/31 05:28:32;;;;;;;9.25;4.65;;;;;;;12.57;77.24;102813.31;7395517;19;20022;-51
2023/05/31 05:30:59;;;;;;;11.10;4.85;;;;;;;12.63;77.35;102809.47;7397488;19;20019;-52
2023/05/31 05:33:28;;;;;;;9.55;4.70;;;;;;;12.76;77.22;102807.09;7397248;19;20371;-48
2023/05/31 05:35:56;;;;;;;10.07;5.32;;;;;;;12.81;77.11;102805.91;7394719;19;20038;-49
2023/05/31 05:38:23;;;;;;;10.40;5.10;;;;;;;12.91;76.82;102809.81;7396479;19;20014;-51
2023/05/31 05:40:50;;;;;;;11.70;5.10;;;;;;;12.96;76.80;102809.59;7397293;19;20058;-52
2023/05/31 05:43:17;;;;;;;11.05;5.70;;;;;;;12.88;76.99;102814.44;7397344;19;20495;-51
2023/05/31 05:45:44;;;;;;;9.15;5.03;;;;;;;12.86;77.24;102808.34;7394229;19;20018;-52
2023/05/31 05:48:11;;;;;;;9.95;5.43;;;;;;;12.84;77.46;102807.56;7396984;19;20374;-53
2023/05/31 05:50:38;;;;;;;10.75;5.32;;;;;;;12.89;77.33;102806.38;7396192;19;20035;-53
2023/05/31 05:53:06;;;;;;;10.88;5.47;;;;;;;13.02;77.25;102808.44;7394669;19;20019;-52
2023/05/31 05:55:33;;;;;;;11.23;5.20;;;;;;;13.02;76.94;102811.09;7394215;19;20026;-51
2023/05/31 05:58:00;;;;;;;10.15;5.13;;;;;;;13.06;77.31;102812.66;7394829;19;20043;-51
2023/05/31 06:00:28;;;;;;;10.27;5.30;;;;;;;13.08;77.52;102810.75;7395847;19;20252;-52
2023/05/31 06:02:55;;;;;;;8.82;5.32;;;;;;;13.08;77.63;102806.28;7396439;19;20389;-51
2023/05/31 06:05:25;;;;;;;10.52;5.03;;;;;;;13.14;77.48;102805.13;7394476;19;20018;-52
2023/05/31 06:07:53;;;;;;;10.30;5.43;;;;;;;13.17;77.31;102805.84;7396488;19;20039;-54
2023/05/31 06:10:21;;;;;;;10.25;5.10;;;;;;;13.26;77.45;102812.50;7393397;19;20022;-54
2023/05/31 06:12:48;;;;;;;9.95;5.07;;;;;;;13.29;77.65;102804.38;7395983;19;20018;-52
2023/05/31 06:15:15;;;;;;;9.82;4.90;;;;;;;13.40;77.53;102802.00;7393668;19;20082;-52
2023/05/31 06:17:43;;;;;;;9.43;5.18;;;;;;;13.51;77.38;102803.25;7395672;19;20015;-53
2023/05/31 06:20:10;;;;;;;9.60;5.30;;;;;;;13.59;77.15;102807.22;7395125;19;20017;-54
2023/05/31 06:22:38;;;;;;;10.63;5.75;;;;;;;13.67;77.40;102798.81;7395304;19;20081;-54
2023/05/31 06:25:05;;;;;;;11.98;5.40;;;;;;;13.76;76.98;102808.09;7393335;19;20011;-55
2023/05/31 06:27:32;;;;;;;12.10;5.85;;;;;;;13.83;76.52;102801.50;7394904;19;20090;-49
2023/05/31 06:30:00;;;;;;;9.88;5.65;;;;;;;13.90;76.25;102801.09;7393081;19;20526;-53
2023/05/31 06:32:29;;;;;;;9.65;4.90;;;;;;;13.97;75.99;102796.28;7395253;19;20386;-55
2023/05/31 06:34:56;;;;;;;11.85;5.40;;;;;;;14.01;75.98;102802.31;7394391;19;20051;-53
2023/05/31 06:37:23;;;;;;;13.48;5.43;;;;;;;14.06;75.72;102803.75;7394299;19;20030;-49
2023/05/31 06:39:50;;;;;;;12.18;5.22;;;;;;;14.10;75.08;102805.31;7394723;19;20022;-52
2023/05/31 06:42:18;;;;;;;11.45;5.53;;;;;;;14.13;75.02;102796.28;7395389;19;20506;-51
2023/05/31 06:44:45;;;;;;;10.45;5.28;;;;;;;14.18;74.78;102791.56;7392972;19;20017;-49
2023/05/31 06:47:23;;;;;;;10.93;4.85;;;;;;;14.23;74.48;102799.28;7394683;19;20052;-50
2023/05/31 06:49:50;;;;;;;11.02;4.85;;;;;;;14.32;73.77;102796.13;7392745;19;20022;-52
2023/05/31 06:52:17;;;;;;;11.65;4.80;;;;;;;14.39;73.50;102805.50;7393207;19;20014;-52
2023/05/31 06:54:45;;;;;;;11.73;5.18;;;;;;;14.44;73.45;102802.56;7392271;19;20026;-51
2023/05/31 06:57:12;;;;;;;10.70;5.00;;;;;;;14.49;73.23;102789.81;7393939;19;20443;-53
2023/05/31 06:59:39;;;;;;;9.38;4.47;;;;;;;14.54;72.91;102795.78;7392627;19;20011;-50
2023/05/31 07:02:07;;;;;;;10.88;4.70;;;;;;;14.58;72.56;102794.66;7393885;19;20022;-51
2023/05/31 07:04:34;;;;;;;12.50;4.85;;;;;;;14.65;72.26;102795.16;7392257;19;20052;-49
2023/05/31 07:07:02;;;;;;;9.65;4.60;;;;;;;14.68;71.91;102795.81;7393401;19;20027;-51
2023/05/31 07:09:29;;;;;;;10.93;4.30;;;;;;;14.72;71.65;102791.19;7392216;19;20015;-51
2023/05/31 07:11:56;;;;;;;9.65;4.28;;;;;;;14.74;71.83;102790.16;7392998;19;20031;-51
2023/05/31 07:14:24;;;;;;;9.02;4.45;;;;;;;14.79;71.49;102788.06;7392323;19;20026;-50
2023/05/31 07:16:51;;;;;;;10.05;4.32;;;;;;;14.87;71.05;102780.47;7393417;19;20499;-52
2023/05/31 07:19:18;;;;;;;11.05;4.60;;;;;;;14.96;70.25;102784.41;7392522;19;20019;-50
2023/05/31 07:21:45;;;;;;;13.30;4.07;;;;;;;15.01;70.01;102768.97;7393292;19;20523;-51
2023/05/31 07:24:12;;;;;;;9.13;4.15;;;;;;;15.08;69.94;102769.47;7390446;19;20039;-50
2023/05/31 07:26:40;;;;;;;7.82;3.13;;;;;;;15.13;69.22;102766.53;7392819;19;20026;-52
2023/05/31 07:29:07;;;;;;;8.68;3.30;;;;;;;15.16;68.86;102777.00;7391881;19;20520;-52
2023/05/31 07:31:34;;;;;;;11.00;3.75;;;;;;;15.19;68.20;102775.03;7392450;19;20014;-53
2023/05/31 07:34:01;;;;;;;11.93;3.60;;;;;;;15.26;67.79;102779.03;7392538;19;20047;-54
2023/05/31 07:36:28;;;;;;;10.45;3.97;;;;;;;15.30;67.75;102769.00;7392352;19;20050;-52
2023/05/31 07:38:55;;;;;;;11.00;3.55;;;;;;;15.35;67.58;102770.44;7392276;19;20424;-51
2023/05/31 07:41:22;;;;;;;10.23;3.90;;;;;;;15.37;67.28;102775.69;7391642;19;20022;-52
2023/05/31 07:43:51;;;;;;;9.95;4.10;;;;;;;15.38;67.37;102765.84;7392219;19;20092;-51
2023/05/31 07:46:18;;;;;;;10.70;3.70;;;;;;;15.42;67.12;102770.09;7388243;19;20035;-48
2023/05/31 07:48:45;;;;;;;11.02;3.65;;;;;;;15.48;67.01;102761.66;7390323;19;20378;-51
2023/05/31 07:51:12;;;;;;;10.75;3.50;;;;;;;15.54;66.85;102764.81;7390133;19;20070;-52
2023/05/31 07:53:40;;;;;;;10.02;4.28;;;;;;;15.60;66.86;102764.41;7391474;19;20018;-52
2023/05/31 07:56:07;;;;;;;9.60;3.88;;;;;;;15.70;66.79;102758.56;7388447;19;20094;-51
2023/05/31 07:58:35;;;;;;;11.68;4.30;;;;;;;15.70;66.66;102756.75;7391956;19;20476;-51
2023/05/31 08:01:02;;;;;;;9.48;3.95;;;;;;;15.74;66.61;102752.06;7389540;19;20090;-51
2023/05/31 08:03:31;;;;;;;11.18;3.97;;;;;;;15.80;66.70;102752.53;7391797;19;20022;-53
2023/05/31 08:05:58;;;;;;;8.07;3.83;;;;;;;15.81;66.68;102756.06;7389747;19;20019;-50
2023/05/31 08:08:25;;;;;;;11.52;3.97;;;;;;;15.93;66.74;102762.44;7390918;19;20042;-51
2023/05/31 08:10:53;;;;;;;9.38;3.85;;;;;;;15.93;66.32;102763.28;7387961;19;20528;-50
2023/05/31 08:13:20;;;;;;;12.40;3.58;;;;;;;16.06;64.98;102747.31;7390956;19;20022;-48
2023/05/31 08:15:47;;;;;;;9.48;3.60;;;;;;;16.08;64.86;102753.41;7389868;19;20078;-47
2023/05/31 08:18:14;;;;;;;9.55;3.67;;;;;;;16.12;64.76;102748.75;7390813;19;20583;-49
2023/05/31 08:20:41;;;;;;;11.27;4.18;;;;;;;16.18;65.58;102749.19;7391128;19;20026;-48
2023/05/31 08:23:09;;;;;;;10.38;4.18;;;;;;;16.28;65.55;102754.78;7390691;19;20115;-47
2023/05/31 08:25:40;;;;;;;11.27;4.35;;;;;;;16.34;65.13;102749.03;7388275;19;20014;-48
2023/05/31 08:28:07;;;;;;;10.25;4.00;;;;;;;16.37;65.50;102739.94;7389005;19;20014;-50
2023/05/31 08:30:34;;;;;;;12.32;4.07;;;;;;;16.48;65.75;102745.44;7389204;19;20010;-48
2023/05/31 08:33:02;;;;;;;10.05;3.72;;;;;;;16.53;65.45;102746.84;7388570;19;20499;-49
2023/05/31 08:35:29;;;;;;;11.63;4.45;;;;;;;16.59;64.91;102742.91;7388396;19;20033;-50
2023/05/31 08:37:56;;;;;;;12.15;3.97;;;;;;;16.65;64.20;102744.31;7390018;19;20027;-51
2023/05/31 08:40:24;;;;;;;9.43;3.95;;;;;;;16.72;63.73;102734.91;7389176;19;20029;-50
2023/05/31 08:42:59;;;;;;;11.15;4.45;;;;;;;16.82;63.00;102744.03;7390229;19;20082;-52
2023/05/31 08:45:28;;;;;;;9.25;3.25;;;;;;;16.88;62.59;102729.41;7389205;19;20098;-54
2023/05/31 08:48:09;;;;;;;12.55;4.20;;;;;;;16.91;62.20;102731.88;7390457;19;20104;-48
2023/05/31 08:50:38;;;;;;;11.68;3.47;;;;;;;16.90;61.71;102733.66;7389390;19;20018;-51
2023/05/31 08:53:05;;;;;;;10.73;3.22;;;;;;;16.93;61.46;102733.47;7390372;19;20015;-51
2023/05/31 08:55:33;;;;;;;10.25;3.20;;;;;;;16.93;61.24;102722.75;7387939;19;20015;-49
2023/05/31 08:58:02;;;;;;;8.40;2.75;;;;;;;16.98;61.05;102727.78;7388738;19;20026;-51
2023/05/31 09:00:30;;;;;;;8.88;3.00;;;;;;;17.01;60.04;102722.22;7389337;19;20011;-53
2023/05/31 09:02:59;;;;;;;10.70;3.13;;;;;;;16.98;59.05;102720.66;7396284;19;20102;-48
2023/05/31 09:05:26;;;;;;;8.85;3.28;;;;;;;16.96;58.96;102721.69;7394772;19;20039;-51
2023/05/31 09:07:56;;;;;;;7.57;2.85;;;;;;;16.99;58.62;102718.81;7397494;19;20014;-50
2023/05/31 09:10:23;;;;;;;7.82;2.70;;;;;;;17.04;58.47;102720.19;7395525;19;20495;-52
2023/05/31 09:12:50;;;;;;;8.13;3.03;;;;;;;17.05;58.26;102721.91;7397122;19;20018;-53
2023/05/31 09:15:21;;;;;;;7.90;2.80;;;;;;;17.15;57.83;102721.28;7395111;19;20031;-49
2023/05/31 09:17:48;;;;;;;11.77;2.60;;;;;;;17.20;57.54;102721.81;7397141;19;20121;-49
2023/05/31 09:20:17;;;;;;;7.75;2.75;;;;;;;17.20;57.51;102713.75;7396936;19;20038;-53
2023/05/31 09:22:51;;;;;;;8.82;2.63;;;;;;;17.32;57.08;102714.72;7397311;19;20023;-53
2023/05/31 09:25:18;;;;;;;7.80;2.60;;;;;;;17.35;56.55;102718.03;7395290;19;20017;-53
2023/05/31 09:27:45;;;;;;;8.75;2.60;;;;;;;17.43;56.66;102718.34;7397122;19;20018;-50
2023/05/31 09:30:14;;;;;;;8.23;3.30;;;;;;;17.51;55.94;102718.69;7395095;19;20082;-51
2023/05/31 09:32:53;;;;;;;9.50;3.30;;;;;;;17.54;55.58;102709.53;7396396;19;20022;-52
2023/05/31 09:35:24;;;;;;;9.73;2.70;;;;;;;17.51;55.70;102704.41;7395107;19;20039;-54
2023/05/31 09:37:53;;;;;;;10.80;2.60;;;;;;;17.60;55.67;102708.25;7396001;19;20604;-52
2023/05/31 09:40:25;;;;;;;10.55;3.10;;;;;;;17.66;55.37;102707.81;7396284;19;20539;-52
2023/05/31 09:42:54;;;;;;;7.60;2.70;;;;;;;17.75;54.66;102704.50;7396440;19;20055;-51
2023/05/31 09:45:22;;;;;;;10.10;2.90;;;;;;;17.85;54.52;102704.66;7394907;19;20036;-52
2023/05/31 09:47:49;;;;;;;8.18;2.67;;;;;;;17.80;53.94;102702.34;7395948;19;20118;-52
2023/05/31 09:50:19;;;;;;;7.70;2.78;;;;;;;17.89;53.12;102700.78;7394658;19;20014;-51
2023/05/31 09:52:49;;;;;;;9.73;2.80;;;;;;;17.86;53.39;102690.28;7395589;19;20078;-49
2023/05/31 09:55:16;;;;;;;7.53;2.47;;;;;;;17.91;53.35;102696.19;7394755;19;20660;-51
2023/05/31 09:57:45;;;;;;;7.88;2.22;;;;;;;18.02;53.03;102693.56;7396305;19;20082;-52
2023/05/31 10:00:17;;;;;;;8.77;2.40;;;;;;;18.08;53.10;102690.41;7395619;19;20494;-50
2023/05/31 10:02:50;;;;;;;12.30;3.83;;;;;;;18.01;53.36;102684.69;7396261;19;20029;-52
2023/05/31 10:05:18;;;;;;;9.38;2.70;;;;;;;18.08;53.11;102685.06;7393335;19;20043;-52
2023/05/31 10:07:48;;;;;;;8.35;2.97;;;;;;;18.20;52.54;102688.63;7393577;19;20090;-53
2023/05/31 10:10:19;;;;;;;7.85;2.70;;;;;;;18.24;52.22;102690.16;7394397;19;20038;-51
2023/05/31 10:12:50;;;;;;;53.30;9.70;;;;;;;18.19;52.46;102685.09;7394674;19;20026;-52
2023/05/31 10:15:27;;;;;;;11.70;3.03;;;;;;;18.29;52.69;102679.06;7393038;19;20173;-53
2023/05/31 10:18:01;;;;;;;8.95;2.60;;;;;;;18.37;52.53;102672.13;7395272;19;20018;-54
2023/05/31 10:20:34;;;;;;;8.25;2.70;;;;;;;18.46;52.74;102671.41;7394936;19;20026;-50
2023/05/31 10:23:07;;;;;;;7.43;2.80;;;;;;;18.56;52.54;102678.78;7395527;19;20018;-53
2023/05/31 10:25:56;;;;;;;8.20;2.83;;;;;;;18.44;53.14;102668.00;7393670;19;20023;-50
2023/05/31 10:28:27;;;;;;;7.28;2.83;;;;;;;18.46;53.13;102666.06;7393369;19;20341;-51
2023/05/31 10:30:56;;;;;;;7.75;2.45;;;;;;;18.51;52.82;102663.03;7392887;19;20043;-54
2023/05/31 10:33:30;;;;;;;8.98;3.40;;;;;;;18.57;52.98;102659.88;7395067;19;20030;-53
2023/05/31 10:35:59;;;;;;;9.13;3.10;;;;;;;18.69;53.13;102666.97;7391090;19;20019;-53
2023/05/31 10:38:40;;;;;;;7.90;3.13;;;;;;;18.74;53.15;102667.50;7394495;19;20026;-51
2023/05/31 10:41:15;;;;;;;7.65;3.10;;;;;;;18.65;53.08;102661.97;7394561;19;20575;-52
2023/05/31 10:44:05;;;;;;;7.85;3.08;;;;;;;18.64;52.91;102653.06;7394000;19;20480;-53
2023/05/31 10:46:35;;;;;;;9.18;3.50;;;;;;;18.69;53.26;102656.22;7394018;19;20014;-54
2023/05/31 10:49:05;;;;;;;10.45;3.20;;;;;;;18.71;53.41;102650.78;7394259;19;20016;-54
2023/05/31 10:51:39;;;;;;;8.90;3.67;;;;;;;18.75;53.21;102645.06;7392321;19;20023;-51
2023/05/31 10:54:07;;;;;;;8.77;3.15;;;;;;;18.73;53.34;102640.78;7394668;19;20051;-53
2023/05/31 10:56:40;;;;;;;10.15;3.97;;;;;;;18.80;54.15;102649.22;7394486;19;20022;-51
2023/05/31 10:59:17;;;;;;;7.88;3.10;;;;;;;18.84;54.73;102640.78;7394061;19;20026;-52
2023/05/31 11:01:44;;;;;;;13.20;3.42;;;;;;;18.89;54.88;102619.81;7394327;19;20011;-53
2023/05/31 11:04:24;;;;;;;9.23;3.38;;;;;;;19.01;55.25;102631.41;7393192;19;20022;-52
2023/05/31 11:06:54;;;;;;;10.95;3.47;;;;;;;19.05;56.98;102635.56;7393941;19;20018;-55
2023/05/31 11:09:21;;;;;;;8.60;3.22;;;;;;;19.20;57.03;102630.81;7393092;19;20015;-53
2023/05/31 11:11:49;;;;;;;10.68;2.92;;;;;;;19.15;58.20;102628.47;7391352;19;20025;-53
2023/05/31 11:14:28;;;;;;;11.13;3.03;;;;;;;19.22;58.52;102634.19;7391494;19;20026;-54
2023/05/31 11:17:06;;;;;;;9.70;3.38;;;;;;;19.17;58.31;102626.53;7393758;19;20018;-54
2023/05/31 11:19:36;;;;;;;11.45;3.30;;;;;;;19.13;58.99;102635.81;7393242;19;20022;-54
2023/05/31 11:22:09;;;;;;;10.02;3.35;;;;;;;19.12;58.32;102633.25;7392935;19;20047;-54
2023/05/31 11:24:37;;;;;;;8.33;2.90;;;;;;;19.01;58.41;102636.78;7389768;19;20023;-53
2023/05/31 11:27:10;;;;;;;11.73;3.35;;;;;;;19.01;58.38;102636.78;7393632;19;20026;-51